Terminal Aerodrome Forecast
Issued by NWS Billings, MT

Home | Current Version | Previous Version | Text Only | Print | Product List | Glossary Off
Versions: 1 2 3 4 5 6 7 8 9 10 11 12 13 14 15 16 17 18 19 20 21 22 23 24 25 26 27 28

000
FTUS45 KBYZ 191728
TAFMLS
TAF
KMLS 191728Z 1918/2018 06005KT P6SM FEW150 SCT200
     FM192300 VRB05KT P6SM SCT090 BKN120
     FM200800 22005KT P6SM SKC=

USA.gov is the U.S. government's official web portal to all federal, state and local government web resources and services.